sensor_id;sensor_type;location;lat;lon;timestamp;P1;durP1;ratioP1;P2;durP2;ratioP2
39400;SDS011;54391;50.000;7.360;2023-03-17T00:01:03;6.13;;;3.30;;
39400;SDS011;54391;50.000;7.360;2023-03-17T00:03:32;6.35;;;2.70;;
39400;SDS011;54391;50.000;7.360;2023-03-17T00:06:04;10.27;;;2.88;;
39400;SDS011;54391;50.000;7.360;2023-03-17T00:08:37;7.07;;;2.92;;
39400;SDS011;54391;50.000;7.360;2023-03-17T00:11:04;6.50;;;2.78;;
39400;SDS011;54391;50.000;7.360;2023-03-17T00:13:36;5.50;;;2.85;;
39400;SDS011;54391;50.000;7.360;2023-03-17T00:16:03;5.45;;;3.03;;
39400;SDS011;54391;50.000;7.360;2023-03-17T00:18:33;5.45;;;2.95;;
39400;SDS011;54391;50.000;7.360;2023-03-17T00:21:02;6.32;;;3.30;;
39400;SDS011;54391;50.000;7.360;2023-03-17T00:23:31;5.60;;;2.72;;
39400;SDS011;54391;50.000;7.360;2023-03-17T00:25:59;5.65;;;3.05;;
39400;SDS011;54391;50.000;7.360;2023-03-17T00:28:26;9.10;;;3.38;;
39400;SDS011;54391;50.000;7.360;2023-03-17T00:30:54;5.97;;;3.28;;
39400;SDS011;54391;50.000;7.360;2023-03-17T00:33:24;5.78;;;3.00;;
39400;SDS011;54391;50.000;7.360;2023-03-17T00:35:53;9.43;;;3.75;;
39400;SDS011;54391;50.000;7.360;2023-03-17T00:38:23;6.72;;;3.60;;
39400;SDS011;54391;50.000;7.360;2023-03-17T00:40:53;6.80;;;3.30;;
39400;SDS011;54391;50.000;7.360;2023-03-17T00:43:20;7.20;;;3.08;;
39400;SDS011;54391;50.000;7.360;2023-03-17T00:45:48;5.72;;;3.15;;
39400;SDS011;54391;50.000;7.360;2023-03-17T00:48:16;6.68;;;3.35;;
39400;SDS011;54391;50.000;7.360;2023-03-17T00:50:46;4.97;;;3.22;;
39400;SDS011;54391;50.000;7.360;2023-03-17T00:53:14;8.63;;;3.38;;
39400;SDS011;54391;50.000;7.360;2023-03-17T00:55:43;6.40;;;3.55;;
39400;SDS011;54391;50.000;7.360;2023-03-17T00:58:14;7.78;;;3.38;;
39400;SDS011;54391;50.000;7.360;2023-03-17T01:00:49;7.90;;;3.40;;
39400;SDS011;54391;50.000;7.360;2023-03-17T01:03:17;5.88;;;3.10;;
39400;SDS011;54391;50.000;7.360;2023-03-17T01:05:47;5.75;;;2.95;;
39400;SDS011;54391;50.000;7.360;2023-03-17T01:08:15;7.28;;;3.13;;
39400;SDS011;54391;50.000;7.360;2023-03-17T01:10:43;7.28;;;3.35;;
39400;SDS011;54391;50.000;7.360;2023-03-17T01:13:11;8.32;;;4.20;;
39400;SDS011;54391;50.000;7.360;2023-03-17T01:15:42;6.65;;;3.55;;
39400;SDS011;54391;50.000;7.360;2023-03-17T01:18:11;8.30;;;3.63;;
39400;SDS011;54391;50.000;7.360;2023-03-17T01:20:41;4.95;;;3.10;;
39400;SDS011;54391;50.000;7.360;2023-03-17T01:23:10;9.30;;;4.00;;
39400;SDS011;54391;50.000;7.360;2023-03-17T01:25:38;6.13;;;3.35;;
39400;SDS011;54391;50.000;7.360;2023-03-17T01:28:08;8.10;;;3.65;;
39400;SDS011;54391;50.000;7.360;2023-03-17T01:30:39;6.00;;;3.45;;
39400;SDS011;54391;50.000;7.360;2023-03-17T01:33:08;9.38;;;4.30;;
39400;SDS011;54391;50.000;7.360;2023-03-17T01:35:37;8.75;;;3.35;;
39400;SDS011;54391;50.000;7.360;2023-03-17T01:38:05;6.40;;;3.28;;
39400;SDS011;54391;50.000;7.360;2023-03-17T01:40:34;5.22;;;3.00;;
39400;SDS011;54391;50.000;7.360;2023-03-17T01:43:14;5.07;;;2.55;;
39400;SDS011;54391;50.000;7.360;2023-03-17T01:48:53;6.57;;;3.13;;
39400;SDS011;54391;50.000;7.360;2023-03-17T01:51:30;5.55;;;3.40;;
39400;SDS011;54391;50.000;7.360;2023-03-17T01:54:00;5.32;;;2.80;;
39400;SDS011;54391;50.000;7.360;2023-03-17T01:56:33;6.38;;;2.92;;
39400;SDS011;54391;50.000;7.360;2023-03-17T01:59:03;5.80;;;2.75;;
39400;SDS011;54391;50.000;7.360;2023-03-17T02:01:36;7.85;;;3.28;;
39400;SDS011;54391;50.000;7.360;2023-03-17T02:04:08;5.30;;;2.70;;
39400;SDS011;54391;50.000;7.360;2023-03-17T02:06:37;6.22;;;3.35;;
39400;SDS011;54391;50.000;7.360;2023-03-17T02:09:05;6.05;;;3.38;;
39400;SDS011;54391;50.000;7.360;2023-03-17T02:11:34;8.63;;;3.83;;
39400;SDS011;54391;50.000;7.360;2023-03-17T02:14:01;6.80;;;3.53;;
39400;SDS011;54391;50.000;7.360;2023-03-17T02:16:28;9.43;;;3.78;;
39400;SDS011;54391;50.000;7.360;2023-03-17T02:18:56;5.75;;;3.63;;
39400;SDS011;54391;50.000;7.360;2023-03-17T02:24:14;5.80;;;3.28;;
39400;SDS011;54391;50.000;7.360;2023-03-17T02:26:46;6.75;;;3.17;;
39400;SDS011;54391;50.000;7.360;2023-03-17T02:29:17;6.05;;;3.42;;
39400;SDS011;54391;50.000;7.360;2023-03-17T02:31:45;6.90;;;3.72;;
39400;SDS011;54391;50.000;7.360;2023-03-17T02:34:13;7.70;;;3.67;;
39400;SDS011;54391;50.000;7.360;2023-03-17T02:36:41;5.85;;;3.83;;
39400;SDS011;54391;50.000;7.360;2023-03-17T02:39:09;9.60;;;3.97;;
39400;SDS011;54391;50.000;7.360;2023-03-17T02:41:37;9.70;;;4.25;;
39400;SDS011;54391;50.000;7.360;2023-03-17T02:44:05;6.20;;;3.75;;
39400;SDS011;54391;50.000;7.360;2023-03-17T02:46:32;5.35;;;3.47;;
39400;SDS011;54391;50.000;7.360;2023-03-17T02:48:59;8.25;;;3.67;;
39400;SDS011;54391;50.000;7.360;2023-03-17T02:51:27;6.00;;;3.60;;
39400;SDS011;54391;50.000;7.360;2023-03-17T02:53:55;6.72;;;3.70;;
39400;SDS011;54391;50.000;7.360;2023-03-17T02:56:24;7.55;;;3.30;;
39400;SDS011;54391;50.000;7.360;2023-03-17T02:58:51;9.07;;;3.95;;
39400;SDS011;54391;50.000;7.360;2023-03-17T03:01:18;6.72;;;3.58;;
39400;SDS011;54391;50.000;7.360;2023-03-17T03:03:46;6.38;;;3.25;;
39400;SDS011;54391;50.000;7.360;2023-03-17T03:06:14;7.75;;;3.70;;
39400;SDS011;54391;50.000;7.360;2023-03-17T03:08:41;9.73;;;3.67;;
39400;SDS011;54391;50.000;7.360;2023-03-17T03:11:08;12.70;;;3.65;;
39400;SDS011;54391;50.000;7.360;2023-03-17T03:13:37;6.47;;;3.30;;
39400;SDS011;54391;50.000;7.360;2023-03-17T03:16:05;6.85;;;3.78;;
39400;SDS011;54391;50.000;7.360;2023-03-17T03:18:33;6.32;;;3.30;;
39400;SDS011;54391;50.000;7.360;2023-03-17T03:21:01;12.13;;;3.50;;
39400;SDS011;54391;50.000;7.360;2023-03-17T03:23:30;9.88;;;3.83;;
39400;SDS011;54391;50.000;7.360;2023-03-17T03:25:57;10.90;;;4.85;;
39400;SDS011;54391;50.000;7.360;2023-03-17T03:28:24;9.88;;;4.72;;
39400;SDS011;54391;50.000;7.360;2023-03-17T03:30:53;9.65;;;4.57;;
39400;SDS011;54391;50.000;7.360;2023-03-17T03:33:20;12.55;;;5.35;;
39400;SDS011;54391;50.000;7.360;2023-03-17T03:35:47;11.15;;;4.70;;
39400;SDS011;54391;50.000;7.360;2023-03-17T03:38:15;10.85;;;5.60;;
39400;SDS011;54391;50.000;7.360;2023-03-17T03:40:43;10.88;;;5.78;;
39400;SDS011;54391;50.000;7.360;2023-03-17T03:43:11;9.52;;;5.97;;
39400;SDS011;54391;50.000;7.360;2023-03-17T03:45:38;13.38;;;5.45;;
39400;SDS011;54391;50.000;7.360;2023-03-17T03:48:07;12.40;;;5.63;;
39400;SDS011;54391;50.000;7.360;2023-03-17T03:50:34;9.82;;;5.40;;
39400;SDS011;54391;50.000;7.360;2023-03-17T03:53:02;11.77;;;6.03;;
39400;SDS011;54391;50.000;7.360;2023-03-17T03:55:29;10.65;;;5.50;;
39400;SDS011;54391;50.000;7.360;2023-03-17T03:57:56;9.75;;;5.38;;
39400;SDS011;54391;50.000;7.360;2023-03-17T04:00:23;8.00;;;4.70;;
39400;SDS011;54391;50.000;7.360;2023-03-17T04:02:51;8.50;;;5.00;;
39400;SDS011;54391;50.000;7.360;2023-03-17T04:05:20;8.82;;;4.80;;
39400;SDS011;54391;50.000;7.360;2023-03-17T04:07:47;7.40;;;4.72;;
39400;SDS011;54391;50.000;7.360;2023-03-17T04:10:15;8.60;;;4.32;;
39400;SDS011;54391;50.000;7.360;2023-03-17T04:12:42;10.98;;;5.50;;
39400;SDS011;54391;50.000;7.360;2023-03-17T04:15:13;10.80;;;4.90;;
39400;SDS011;54391;50.000;7.360;2023-03-17T04:17:41;10.52;;;5.25;;
39400;SDS011;54391;50.000;7.360;2023-03-17T04:20:09;9.65;;;5.25;;
39400;SDS011;54391;50.000;7.360;2023-03-17T04:22:39;9.10;;;5.50;;
39400;SDS011;54391;50.000;7.360;2023-03-17T04:25:07;10.27;;;6.05;;
39400;SDS011;54391;50.000;7.360;2023-03-17T04:27:35;11.65;;;6.60;;
39400;SDS011;54391;50.000;7.360;2023-03-17T04:30:03;12.77;;;6.18;;
39400;SDS011;54391;50.000;7.360;2023-03-17T04:32:31;15.25;;;7.45;;
39400;SDS011;54391;50.000;7.360;2023-03-17T04:34:58;10.55;;;6.15;;
39400;SDS011;54391;50.000;7.360;2023-03-17T04:37:27;12.07;;;7.10;;
39400;SDS011;54391;50.000;7.360;2023-03-17T04:39:55;12.52;;;6.78;;
39400;SDS011;54391;50.000;7.360;2023-03-17T04:42:23;14.35;;;6.80;;
39400;SDS011;54391;50.000;7.360;2023-03-17T04:44:50;12.13;;;6.75;;
39400;SDS011;54391;50.000;7.360;2023-03-17T04:47:18;16.02;;;6.72;;
39400;SDS011;54391;50.000;7.360;2023-03-17T04:49:45;10.32;;;6.35;;
39400;SDS011;54391;50.000;7.360;2023-03-17T04:52:12;11.73;;;6.20;;
39400;SDS011;54391;50.000;7.360;2023-03-17T04:54:40;11.75;;;5.90;;
39400;SDS011;54391;50.000;7.360;2023-03-17T04:57:11;14.48;;;6.57;;
39400;SDS011;54391;50.000;7.360;2023-03-17T04:59:39;13.43;;;6.72;;
39400;SDS011;54391;50.000;7.360;2023-03-17T05:02:06;15.73;;;6.68;;
39400;SDS011;54391;50.000;7.360;2023-03-17T05:04:33;10.95;;;5.93;;
39400;SDS011;54391;50.000;7.360;2023-03-17T05:07:01;11.95;;;6.13;;
39400;SDS011;54391;50.000;7.360;2023-03-17T05:09:29;11.55;;;6.25;;
39400;SDS011;54391;50.000;7.360;2023-03-17T05:11:56;10.43;;;5.40;;
39400;SDS011;54391;50.000;7.360;2023-03-17T05:14:25;9.40;;;5.22;;
39400;SDS011;54391;50.000;7.360;2023-03-17T05:16:52;9.57;;;4.93;;
39400;SDS011;54391;50.000;7.360;2023-03-17T05:19:20;9.65;;;4.93;;
39400;SDS011;54391;50.000;7.360;2023-03-17T05:21:47;10.68;;;5.20;;
39400;SDS011;54391;50.000;7.360;2023-03-17T05:24:15;10.63;;;5.05;;
39400;SDS011;54391;50.000;7.360;2023-03-17T05:26:42;8.48;;;4.82;;
39400;SDS011;54391;50.000;7.360;2023-03-17T05:29:10;9.48;;;5.32;;
39400;SDS011;54391;50.000;7.360;2023-03-17T05:31:39;9.50;;;5.07;;
39400;SDS011;54391;50.000;7.360;2023-03-17T05:34:06;11.27;;;5.28;;
39400;SDS011;54391;50.000;7.360;2023-03-17T05:36:34;10.40;;;5.22;;
39400;SDS011;54391;50.000;7.360;2023-03-17T05:39:03;10.15;;;5.85;;
39400;SDS011;54391;50.000;7.360;2023-03-17T05:41:31;9.30;;;6.43;;
39400;SDS011;54391;50.000;7.360;2023-03-17T05:43:59;9.48;;;5.93;;
39400;SDS011;54391;50.000;7.360;2023-03-17T05:46:27;12.70;;;6.18;;
39400;SDS011;54391;50.000;7.360;2023-03-17T05:48:56;13.57;;;6.88;;
39400;SDS011;54391;50.000;7.360;2023-03-17T05:51:23;14.73;;;6.88;;
39400;SDS011;54391;50.000;7.360;2023-03-17T05:53:51;14.50;;;7.18;;
39400;SDS011;54391;50.000;7.360;2023-03-17T05:56:19;9.60;;;6.00;;
39400;SDS011;54391;50.000;7.360;2023-03-17T05:58:46;11.82;;;6.28;;
39400;SDS011;54391;50.000;7.360;2023-03-17T06:01:13;12.65;;;6.80;;
39400;SDS011;54391;50.000;7.360;2023-03-17T06:03:40;13.75;;;6.60;;
39400;SDS011;54391;50.000;7.360;2023-03-17T06:06:09;14.55;;;7.18;;
39400;SDS011;54391;50.000;7.360;2023-03-17T06:08:36;15.38;;;8.07;;
39400;SDS011;54391;50.000;7.360;2023-03-17T06:11:04;12.35;;;7.13;;
39400;SDS011;54391;50.000;7.360;2023-03-17T06:13:31;12.57;;;6.22;;
39400;SDS011;54391;50.000;7.360;2023-03-17T06:15:59;13.65;;;6.20;;
39400;SDS011;54391;50.000;7.360;2023-03-17T06:18:27;10.63;;;5.90;;
39400;SDS011;54391;50.000;7.360;2023-03-17T06:20:55;9.85;;;5.50;;
39400;SDS011;54391;50.000;7.360;2023-03-17T06:23:23;8.57;;;5.03;;
39400;SDS011;54391;50.000;7.360;2023-03-17T06:25:51;12.57;;;5.75;;
39400;SDS011;54391;50.000;7.360;2023-03-17T06:28:18;11.48;;;5.43;;
39400;SDS011;54391;50.000;7.360;2023-03-17T06:30:46;8.98;;;5.00;;
39400;SDS011;54391;50.000;7.360;2023-03-17T06:33:13;11.73;;;5.70;;
39400;SDS011;54391;50.000;7.360;2023-03-17T06:35:42;9.55;;;4.88;;
39400;SDS011;54391;50.000;7.360;2023-03-17T06:38:10;11.38;;;4.97;;
39400;SDS011;54391;50.000;7.360;2023-03-17T06:40:39;10.75;;;4.82;;
39400;SDS011;54391;50.000;7.360;2023-03-17T06:43:06;9.70;;;5.32;;
39400;SDS011;54391;50.000;7.360;2023-03-17T06:45:33;9.88;;;4.90;;
39400;SDS011;54391;50.000;7.360;2023-03-17T06:48:02;7.10;;;4.78;;
39400;SDS011;54391;50.000;7.360;2023-03-17T06:50:31;9.50;;;5.38;;
39400;SDS011;54391;50.000;7.360;2023-03-17T06:52:58;14.13;;;5.32;;
39400;SDS011;54391;50.000;7.360;2023-03-17T06:55:26;9.35;;;5.80;;
39400;SDS011;54391;50.000;7.360;2023-03-17T06:57:54;10.80;;;5.85;;
39400;SDS011;54391;50.000;7.360;2023-03-17T07:00:23;10.52;;;5.88;;
39400;SDS011;54391;50.000;7.360;2023-03-17T07:02:50;13.50;;;6.20;;
39400;SDS011;54391;50.000;7.360;2023-03-17T07:05:18;11.77;;;5.90;;
39400;SDS011;54391;50.000;7.360;2023-03-17T07:07:45;11.20;;;4.95;;
39400;SDS011;54391;50.000;7.360;2023-03-17T07:10:13;8.75;;;5.25;;
39400;SDS011;54391;50.000;7.360;2023-03-17T07:12:41;8.23;;;4.88;;
39400;SDS011;54391;50.000;7.360;2023-03-17T07:15:10;9.80;;;5.47;;
39400;SDS011;54391;50.000;7.360;2023-03-17T07:17:37;9.13;;;4.90;;
39400;SDS011;54391;50.000;7.360;2023-03-17T07:20:05;10.10;;;4.60;;
39400;SDS011;54391;50.000;7.360;2023-03-17T07:22:33;8.25;;;4.43;;
39400;SDS011;54391;50.000;7.360;2023-03-17T07:25:01;7.95;;;4.60;;
39400;SDS011;54391;50.000;7.360;2023-03-17T07:27:28;10.48;;;4.60;;
39400;SDS011;54391;50.000;7.360;2023-03-17T07:29:55;7.38;;;4.40;;
39400;SDS011;54391;50.000;7.360;2023-03-17T07:32:26;9.07;;;4.60;;
39400;SDS011;54391;50.000;7.360;2023-03-17T07:34:53;10.20;;;4.90;;
39400;SDS011;54391;50.000;7.360;2023-03-17T07:37:21;12.38;;;6.43;;
39400;SDS011;54391;50.000;7.360;2023-03-17T07:39:48;11.40;;;6.43;;
39400;SDS011;54391;50.000;7.360;2023-03-17T07:42:16;10.30;;;4.50;;
39400;SDS011;54391;50.000;7.360;2023-03-17T07:44:43;9.52;;;4.53;;
39400;SDS011;54391;50.000;7.360;2023-03-17T07:47:11;10.35;;;4.13;;
39400;SDS011;54391;50.000;7.360;2023-03-17T07:49:40;11.20;;;4.50;;
39400;SDS011;54391;50.000;7.360;2023-03-17T07:52:07;10.93;;;4.15;;
39400;SDS011;54391;50.000;7.360;2023-03-17T07:54:36;11.35;;;5.20;;
39400;SDS011;54391;50.000;7.360;2023-03-17T07:57:05;9.77;;;4.82;;
39400;SDS011;54391;50.000;7.360;2023-03-17T07:59:32;5.75;;;3.75;;
39400;SDS011;54391;50.000;7.360;2023-03-17T08:01:59;8.38;;;4.38;;
39400;SDS011;54391;50.000;7.360;2023-03-17T08:04:28;5.88;;;3.92;;
39400;SDS011;54391;50.000;7.360;2023-03-17T08:06:56;6.45;;;3.30;;
39400;SDS011;54391;50.000;7.360;2023-03-17T08:09:23;7.55;;;3.72;;
39400;SDS011;54391;50.000;7.360;2023-03-17T08:11:51;5.97;;;3.28;;
39400;SDS011;54391;50.000;7.360;2023-03-17T08:14:18;4.32;;;2.75;;
39400;SDS011;54391;50.000;7.360;2023-03-17T08:16:45;7.97;;;3.30;;
39400;SDS011;54391;50.000;7.360;2023-03-17T08:19:13;7.00;;;3.03;;
39400;SDS011;54391;50.000;7.360;2023-03-17T08:21:40;6.97;;;3.30;;
39400;SDS011;54391;50.000;7.360;2023-03-17T08:24:09;6.65;;;2.70;;
39400;SDS011;54391;50.000;7.360;2023-03-17T08:26:36;5.32;;;2.97;;
39400;SDS011;54391;50.000;7.360;2023-03-17T08:29:04;5.75;;;2.83;;
39400;SDS011;54391;50.000;7.360;2023-03-17T08:31:32;5.85;;;2.78;;
39400;SDS011;54391;50.000;7.360;2023-03-17T08:34:00;5.93;;;2.85;;
39400;SDS011;54391;50.000;7.360;2023-03-17T08:36:28;4.38;;;2.50;;
39400;SDS011;54391;50.000;7.360;2023-03-17T08:38:56;6.18;;;2.88;;
39400;SDS011;54391;50.000;7.360;2023-03-17T08:41:25;5.38;;;2.85;;
39400;SDS011;54391;50.000;7.360;2023-03-17T08:43:53;5.82;;;2.45;;
39400;SDS011;54391;50.000;7.360;2023-03-17T08:46:21;5.10;;;2.25;;
39400;SDS011;54391;50.000;7.360;2023-03-17T08:48:50;6.72;;;2.85;;
39400;SDS011;54391;50.000;7.360;2023-03-17T08:51:19;4.10;;;2.40;;
39400;SDS011;54391;50.000;7.360;2023-03-17T08:53:47;7.32;;;2.38;;
39400;SDS011;54391;50.000;7.360;2023-03-17T08:56:14;5.22;;;2.80;;
39400;SDS011;54391;50.000;7.360;2023-03-17T08:58:43;5.22;;;2.58;;
39400;SDS011;54391;50.000;7.360;2023-03-17T09:01:11;6.15;;;3.17;;
39400;SDS011;54391;50.000;7.360;2023-03-17T09:03:39;4.13;;;2.63;;
39400;SDS011;54391;50.000;7.360;2023-03-17T09:06:07;7.68;;;3.22;;
39400;SDS011;54391;50.000;7.360;2023-03-17T09:08:36;5.68;;;2.67;;
39400;SDS011;54391;50.000;7.360;2023-03-17T09:11:05;8.05;;;3.05;;
39400;SDS011;54391;50.000;7.360;2023-03-17T09:13:35;7.78;;;2.75;;
39400;SDS011;54391;50.000;7.360;2023-03-17T09:16:04;5.93;;;4.15;;
39400;SDS011;54391;50.000;7.360;2023-03-17T09:18:33;8.02;;;3.95;;
39400;SDS011;54391;50.000;7.360;2023-03-17T09:21:00;4.35;;;2.08;;
39400;SDS011;54391;50.000;7.360;2023-03-17T09:23:27;5.18;;;2.50;;
39400;SDS011;54391;50.000;7.360;2023-03-17T09:25:55;8.98;;;3.10;;
39400;SDS011;54391;50.000;7.360;2023-03-17T09:28:22;6.55;;;2.72;;
39400;SDS011;54391;50.000;7.360;2023-03-17T09:30:50;6.93;;;2.65;;
39400;SDS011;54391;50.000;7.360;2023-03-17T09:33:19;4.45;;;2.92;;
39400;SDS011;54391;50.000;7.360;2023-03-17T09:35:46;7.25;;;3.03;;
39400;SDS011;54391;50.000;7.360;2023-03-17T09:38:16;3.95;;;2.53;;
39400;SDS011;54391;50.000;7.360;2023-03-17T09:40:46;5.15;;;2.88;;
39400;SDS011;54391;50.000;7.360;2023-03-17T09:43:17;4.57;;;2.25;;
39400;SDS011;54391;50.000;7.360;2023-03-17T09:45:51;4.03;;;2.03;;
39400;SDS011;54391;50.000;7.360;2023-03-17T09:51:15;5.97;;;2.67;;
39400;SDS011;54391;50.000;7.360;2023-03-17T09:53:46;4.72;;;2.03;;
39400;SDS011;54391;50.000;7.360;2023-03-17T09:56:17;5.85;;;2.25;;
39400;SDS011;54391;50.000;7.360;2023-03-17T09:58:47;6.55;;;2.28;;
39400;SDS011;54391;50.000;7.360;2023-03-17T10:01:18;5.45;;;2.10;;
39400;SDS011;54391;50.000;7.360;2023-03-17T10:03:47;4.72;;;2.45;;
39400;SDS011;54391;50.000;7.360;2023-03-17T10:06:18;4.30;;;2.20;;
39400;SDS011;54391;50.000;7.360;2023-03-17T10:08:59;5.28;;;2.33;;
39400;SDS011;54391;50.000;7.360;2023-03-17T10:11:42;4.63;;;1.95;;
39400;SDS011;54391;50.000;7.360;2023-03-17T10:17:11;4.57;;;2.00;;
39400;SDS011;54391;50.000;7.360;2023-03-17T10:19:43;8.95;;;2.58;;
39400;SDS011;54391;50.000;7.360;2023-03-17T10:22:16;5.15;;;2.10;;
39400;SDS011;54391;50.000;7.360;2023-03-17T10:24:49;5.13;;;2.30;;
39400;SDS011;54391;50.000;7.360;2023-03-17T10:27:19;3.83;;;2.33;;
39400;SDS011;54391;50.000;7.360;2023-03-17T10:29:47;8.02;;;2.53;;
39400;SDS011;54391;50.000;7.360;2023-03-17T10:32:14;4.70;;;2.50;;
39400;SDS011;54391;50.000;7.360;2023-03-17T10:34:43;5.43;;;2.45;;
39400;SDS011;54391;50.000;7.360;2023-03-17T10:37:13;4.53;;;2.45;;
39400;SDS011;54391;50.000;7.360;2023-03-17T10:39:44;6.28;;;1.95;;
39400;SDS011;54391;50.000;7.360;2023-03-17T10:42:18;4.50;;;2.40;;
39400;SDS011;54391;50.000;7.360;2023-03-17T10:44:49;2.85;;;1.90;;
39400;SDS011;54391;50.000;7.360;2023-03-17T10:47:20;7.32;;;1.73;;
39400;SDS011;54391;50.000;7.360;2023-03-17T10:49:52;6.70;;;2.10;;
39400;SDS011;54391;50.000;7.360;2023-03-17T10:52:22;5.38;;;3.00;;
39400;SDS011;54391;50.000;7.360;2023-03-17T10:54:52;4.00;;;2.30;;
39400;SDS011;54391;50.000;7.360;2023-03-17T10:57:20;8.98;;;2.15;;
39400;SDS011;54391;50.000;7.360;2023-03-17T10:59:48;4.97;;;2.00;;
39400;SDS011;54391;50.000;7.360;2023-03-17T11:02:19;4.00;;;2.00;;
39400;SDS011;54391;50.000;7.360;2023-03-17T11:04:53;5.40;;;2.13;;
39400;SDS011;54391;50.000;7.360;2023-03-17T11:07:26;5.68;;;2.22;;
39400;SDS011;54391;50.000;7.360;2023-03-17T11:09:56;5.43;;;2.30;;
39400;SDS011;54391;50.000;7.360;2023-03-17T11:12:27;4.70;;;1.90;;
39400;SDS011;54391;50.000;7.360;2023-03-17T11:14:59;4.82;;;1.83;;
39400;SDS011;54391;50.000;7.360;2023-03-17T11:17:32;4.65;;;2.10;;
39400;SDS011;54391;50.000;7.360;2023-03-17T11:20:14;7.18;;;2.20;;
39400;SDS011;54391;50.000;7.360;2023-03-17T11:22:53;3.63;;;2.13;;
39400;SDS011;54391;50.000;7.360;2023-03-17T11:25:27;3.28;;;1.70;;
39400;SDS011;54391;50.000;7.360;2023-03-17T11:27:58;4.38;;;1.95;;
39400;SDS011;54391;50.000;7.360;2023-03-17T11:30:34;3.95;;;1.75;;
39400;SDS011;54391;50.000;7.360;2023-03-17T11:33:04;4.50;;;1.90;;
39400;SDS011;54391;50.000;7.360;2023-03-17T11:35:45;7.80;;;1.80;;
39400;SDS011;54391;50.000;7.360;2023-03-17T11:38:21;4.88;;;2.30;;
39400;SDS011;54391;50.000;7.360;2023-03-17T11:43:55;4.10;;;1.58;;
39400;SDS011;54391;50.000;7.360;2023-03-17T11:46:43;4.10;;;1.70;;
39400;SDS011;54391;50.000;7.360;2023-03-17T11:49:17;6.40;;;2.20;;
39400;SDS011;54391;50.000;7.360;2023-03-17T11:51:50;6.00;;;1.88;;
39400;SDS011;54391;50.000;7.360;2023-03-17T11:54:25;5.22;;;2.40;;
39400;SDS011;54391;50.000;7.360;2023-03-17T11:56:59;4.65;;;2.10;;
39400;SDS011;54391;50.000;7.360;2023-03-17T11:59:32;5.32;;;1.90;;
39400;SDS011;54391;50.000;7.360;2023-03-17T12:02:05;4.95;;;1.95;;
39400;SDS011;54391;50.000;7.360;2023-03-17T12:04:48;3.25;;;1.63;;
39400;SDS011;54391;50.000;7.360;2023-03-17T12:07:21;4.50;;;1.67;;
39400;SDS011;54391;50.000;7.360;2023-03-17T12:09:54;7.00;;;2.08;;
39400;SDS011;54391;50.000;7.360;2023-03-17T12:12:29;3.95;;;1.63;;
39400;SDS011;54391;50.000;7.360;2023-03-17T12:15:02;3.08;;;1.73;;
39400;SDS011;54391;50.000;7.360;2023-03-17T12:17:33;3.72;;;1.85;;
39400;SDS011;54391;50.000;7.360;2023-03-17T12:20:06;5.20;;;1.67;;
39400;SDS011;54391;50.000;7.360;2023-03-17T12:22:45;4.65;;;1.95;;
39400;SDS011;54391;50.000;7.360;2023-03-17T12:25:20;3.50;;;2.13;;
39400;SDS011;54391;50.000;7.360;2023-03-17T12:27:53;4.90;;;2.10;;
39400;SDS011;54391;50.000;7.360;2023-03-17T12:30:26;6.43;;;1.83;;
39400;SDS011;54391;50.000;7.360;2023-03-17T12:33:03;3.50;;;1.55;;
39400;SDS011;54391;50.000;7.360;2023-03-17T12:35:37;4.28;;;1.77;;
39400;SDS011;54391;50.000;7.360;2023-03-17T12:38:08;5.22;;;1.60;;
39400;SDS011;54391;50.000;7.360;2023-03-17T12:40:40;5.32;;;1.70;;
39400;SDS011;54391;50.000;7.360;2023-03-17T12:49:23;4.20;;;1.63;;
39400;SDS011;54391;50.000;7.360;2023-03-17T12:52:07;3.83;;;1.75;;
39400;SDS011;54391;50.000;7.360;2023-03-17T12:54:44;5.28;;;2.03;;
39400;SDS011;54391;50.000;7.360;2023-03-17T12:57:16;4.05;;;1.73;;
39400;SDS011;54391;50.000;7.360;2023-03-17T12:59:45;4.90;;;1.48;;
39400;SDS011;54391;50.000;7.360;2023-03-17T13:02:16;3.22;;;1.73;;
39400;SDS011;54391;50.000;7.360;2023-03-17T13:04:49;3.63;;;1.58;;
39400;SDS011;54391;50.000;7.360;2023-03-17T13:07:22;5.95;;;1.95;;
39400;SDS011;54391;50.000;7.360;2023-03-17T13:10:18;4.05;;;1.85;;
39400;SDS011;54391;50.000;7.360;2023-03-17T13:13:04;4.78;;;1.73;;
39400;SDS011;54391;50.000;7.360;2023-03-17T13:21:32;5.18;;;2.05;;
39400;SDS011;54391;50.000;7.360;2023-03-17T13:27:02;4.95;;;1.70;;
39400;SDS011;54391;50.000;7.360;2023-03-17T13:29:37;4.78;;;1.63;;
39400;SDS011;54391;50.000;7.360;2023-03-17T13:35:20;2.95;;;1.23;;
39400;SDS011;54391;50.000;7.360;2023-03-17T13:41:07;3.33;;;1.35;;
39400;SDS011;54391;50.000;7.360;2023-03-17T13:44:06;4.03;;;1.45;;
39400;SDS011;54391;50.000;7.360;2023-03-17T13:46:42;3.92;;;1.60;;
39400;SDS011;54391;50.000;7.360;2023-03-17T13:49:13;4.45;;;1.25;;
39400;SDS011;54391;50.000;7.360;2023-03-17T13:51:49;3.55;;;1.40;;
39400;SDS011;54391;50.000;7.360;2023-03-17T13:54:19;3.40;;;1.40;;
39400;SDS011;54391;50.000;7.360;2023-03-17T13:56:54;6.15;;;1.30;;
39400;SDS011;54391;50.000;7.360;2023-03-17T13:59:30;4.20;;;1.45;;
39400;SDS011;54391;50.000;7.360;2023-03-17T14:02:02;5.78;;;1.55;;
39400;SDS011;54391;50.000;7.360;2023-03-17T14:04:42;3.45;;;1.60;;
39400;SDS011;54391;50.000;7.360;2023-03-17T14:07:17;4.25;;;1.20;;
39400;SDS011;54391;50.000;7.360;2023-03-17T14:09:49;2.97;;;1.40;;
39400;SDS011;54391;50.000;7.360;2023-03-17T14:12:18;3.85;;;1.10;;
39400;SDS011;54391;50.000;7.360;2023-03-17T14:14:54;3.50;;;1.35;;
39400;SDS011;54391;50.000;7.360;2023-03-17T14:17:29;3.33;;;1.27;;
39400;SDS011;54391;50.000;7.360;2023-03-17T14:20:05;3.85;;;1.67;;
39400;SDS011;54391;50.000;7.360;2023-03-17T14:22:45;3.25;;;0.98;;
39400;SDS011;54391;50.000;7.360;2023-03-17T14:25:14;2.00;;;1.10;;
39400;SDS011;54391;50.000;7.360;2023-03-17T14:27:43;1.65;;;1.10;;
39400;SDS011;54391;50.000;7.360;2023-03-17T14:30:16;3.90;;;1.08;;
39400;SDS011;54391;50.000;7.360;2023-03-17T14:32:46;4.32;;;1.20;;
39400;SDS011;54391;50.000;7.360;2023-03-17T14:35:15;4.70;;;1.30;;
39400;SDS011;54391;50.000;7.360;2023-03-17T14:37:43;3.28;;;1.00;;
39400;SDS011;54391;50.000;7.360;2023-03-17T14:40:18;3.40;;;1.10;;
39400;SDS011;54391;50.000;7.360;2023-03-17T14:42:47;2.28;;;0.90;;
39400;SDS011;54391;50.000;7.360;2023-03-17T14:45:26;4.43;;;0.90;;
39400;SDS011;54391;50.000;7.360;2023-03-17T14:47:56;1.58;;;0.77;;
39400;SDS011;54391;50.000;7.360;2023-03-17T14:50:25;2.13;;;0.80;;
39400;SDS011;54391;50.000;7.360;2023-03-17T14:52:56;5.20;;;0.95;;
39400;SDS011;54391;50.000;7.360;2023-03-17T14:55:27;3.97;;;1.17;;
39400;SDS011;54391;50.000;7.360;2023-03-17T14:58:04;1.02;;;0.93;;
39400;SDS011;54391;50.000;7.360;2023-03-17T15:00:35;2.03;;;1.00;;
39400;SDS011;54391;50.000;7.360;2023-03-17T15:03:16;3.65;;;1.00;;
39400;SDS011;54391;50.000;7.360;2023-03-17T15:05:45;4.00;;;0.93;;
39400;SDS011;54391;50.000;7.360;2023-03-17T15:11:07;4.65;;;1.30;;
39400;SDS011;54391;50.000;7.360;2023-03-17T15:13:40;2.80;;;0.93;;
39400;SDS011;54391;50.000;7.360;2023-03-17T15:16:14;2.65;;;1.20;;
39400;SDS011;54391;50.000;7.360;2023-03-17T15:18:43;2.97;;;1.00;;
39400;SDS011;54391;50.000;7.360;2023-03-17T15:21:21;1.85;;;1.05;;
39400;SDS011;54391;50.000;7.360;2023-03-17T15:23:52;2.10;;;0.80;;
39400;SDS011;54391;50.000;7.360;2023-03-17T15:26:21;2.20;;;0.93;;
39400;SDS011;54391;50.000;7.360;2023-03-17T15:28:55;3.13;;;0.80;;
39400;SDS011;54391;50.000;7.360;2023-03-17T15:31:25;5.75;;;1.10;;
39400;SDS011;54391;50.000;7.360;2023-03-17T15:33:54;2.72;;;1.42;;
39400;SDS011;54391;50.000;7.360;2023-03-17T15:36:23;6.85;;;1.20;;
39400;SDS011;54391;50.000;7.360;2023-03-17T15:38:50;3.65;;;1.13;;
39400;SDS011;54391;50.000;7.360;2023-03-17T15:41:18;3.60;;;1.00;;